Ambleve, Belgium
Current Conditions -  °F | °C
As of 6:25 AM on Wednesday 22 Oct 2014 (Local Time) from EBLB Reporting Station
Broken Clouds Broken Clouds  
Wind Chill: -2°   Ceiling: 600
Heat Index:   Visibility: 6mi
Dew Point:   Wind: 17mph
Humidity: 93%   Direction: 290°WNW
Pressure: 29.97"   Gusts: NA
Location:  50.35°N, 6.17°E
Report Text: EBLB 220425Z 29015KT 9999 SCT004 BKN006 BKN012 03/02 Q1015 YLO
Loading
Personal Weather Stations






























Interactive Weather Map
Tropical Storm Tracking
New forecast layout! Learn more

10-Day Weather Forecast

Advertisements
Track Severe Weather on mobile